sensor_id;sensor_type;location;lat;lon;timestamp;P1;durP1;ratioP1;P2;durP2;ratioP2
77280;SDS011;66339;47.262;17.144;2023-04-06T00:00:10;3.97;;;1.50;;
77280;SDS011;66339;47.262;17.144;2023-04-06T00:02:44;1.65;;;1.20;;
77280;SDS011;66339;47.262;17.144;2023-04-06T00:05:19;2.62;;;1.35;;
77280;SDS011;66339;47.262;17.144;2023-04-06T00:07:47;2.53;;;1.65;;
77280;SDS011;66339;47.262;17.144;2023-04-06T00:10:21;2.12;;;1.50;;
77280;SDS011;66339;47.262;17.144;2023-04-06T00:12:52;3.20;;;1.50;;
77280;SDS011;66339;47.262;17.144;2023-04-06T00:15:24;4.10;;;1.52;;
77280;SDS011;66339;47.262;17.144;2023-04-06T00:17:52;1.98;;;1.27;;
77280;SDS011;66339;47.262;17.144;2023-04-06T00:20:24;3.58;;;1.33;;
77280;SDS011;66339;47.262;17.144;2023-04-06T00:22:57;2.08;;;1.37;;
77280;SDS011;66339;47.262;17.144;2023-04-06T00:25:37;2.03;;;1.30;;
77280;SDS011;66339;47.262;17.144;2023-04-06T00:28:07;3.42;;;1.42;;
77280;SDS011;66339;47.262;17.144;2023-04-06T00:30:46;2.28;;;1.48;;
77280;SDS011;66339;47.262;17.144;2023-04-06T00:33:14;2.85;;;1.20;;
77280;SDS011;66339;47.262;17.144;2023-04-06T00:35:51;2.35;;;1.40;;
77280;SDS011;66339;47.262;17.144;2023-04-06T00:38:22;9.00;;;2.15;;
77280;SDS011;66339;47.262;17.144;2023-04-06T00:41:00;1.98;;;1.30;;
77280;SDS011;66339;47.262;17.144;2023-04-06T00:43:31;2.42;;;1.23;;
77280;SDS011;66339;47.262;17.144;2023-04-06T00:46:02;2.30;;;1.25;;
77280;SDS011;66339;47.262;17.144;2023-04-06T00:51:08;2.62;;;1.23;;
77280;SDS011;66339;47.262;17.144;2023-04-06T00:53:38;3.53;;;1.42;;
77280;SDS011;66339;47.262;17.144;2023-04-06T00:56:09;2.75;;;1.60;;
77280;SDS011;66339;47.262;17.144;2023-04-06T00:58:39;2.60;;;1.50;;
77280;SDS011;66339;47.262;17.144;2023-04-06T01:01:10;1.80;;;1.20;;
77280;SDS011;66339;47.262;17.144;2023-04-06T01:03:43;1.90;;;1.30;;
77280;SDS011;66339;47.262;17.144;2023-04-06T01:06:11;2.90;;;1.25;;
77280;SDS011;66339;47.262;17.144;2023-04-06T01:08:42;3.10;;;1.50;;
77280;SDS011;66339;47.262;17.144;2023-04-06T01:11:13;2.28;;;1.40;;
77280;SDS011;66339;47.262;17.144;2023-04-06T01:13:44;2.50;;;1.60;;
77280;SDS011;66339;47.262;17.144;2023-04-06T01:16:18;2.03;;;1.23;;
77280;SDS011;66339;47.262;17.144;2023-04-06T01:18:46;2.08;;;1.23;;
77280;SDS011;66339;47.262;17.144;2023-04-06T01:21:19;2.10;;;1.40;;
77280;SDS011;66339;47.262;17.144;2023-04-06T01:23:51;2.12;;;1.50;;
77280;SDS011;66339;47.262;17.144;2023-04-06T01:26:25;2.15;;;1.40;;
77280;SDS011;66339;47.262;17.144;2023-04-06T01:28:52;2.12;;;1.50;;
77280;SDS011;66339;47.262;17.144;2023-04-06T01:31:20;2.60;;;1.60;;
77280;SDS011;66339;47.262;17.144;2023-04-06T01:33:48;2.87;;;1.40;;
77280;SDS011;66339;47.262;17.144;2023-04-06T01:36:20;1.85;;;1.40;;
77280;SDS011;66339;47.262;17.144;2023-04-06T01:38:48;2.45;;;1.23;;
77280;SDS011;66339;47.262;17.144;2023-04-06T01:41:18;1.95;;;1.33;;
77280;SDS011;66339;47.262;17.144;2023-04-06T01:43:50;1.60;;;1.30;;
77280;SDS011;66339;47.262;17.144;2023-04-06T01:46:18;2.55;;;1.35;;
77280;SDS011;66339;47.262;17.144;2023-04-06T01:48:54;2.40;;;1.50;;
77280;SDS011;66339;47.262;17.144;2023-04-06T01:51:22;3.00;;;1.27;;
77280;SDS011;66339;47.262;17.144;2023-04-06T01:53:58;1.50;;;1.25;;
77280;SDS011;66339;47.262;17.144;2023-04-06T01:56:28;1.85;;;1.20;;
77280;SDS011;66339;47.262;17.144;2023-04-06T01:59:05;1.50;;;1.30;;
77280;SDS011;66339;47.262;17.144;2023-04-06T02:01:33;2.17;;;1.40;;
77280;SDS011;66339;47.262;17.144;2023-04-06T02:04:04;2.58;;;1.35;;
77280;SDS011;66339;47.262;17.144;2023-04-06T02:06:32;3.40;;;1.40;;
77280;SDS011;66339;47.262;17.144;2023-04-06T02:09:00;3.53;;;1.40;;
77280;SDS011;66339;47.262;17.144;2023-04-06T02:11:32;6.18;;;1.65;;
77280;SDS011;66339;47.262;17.144;2023-04-06T02:14:05;1.90;;;1.30;;
77280;SDS011;66339;47.262;17.144;2023-04-06T02:16:37;2.08;;;1.40;;
77280;SDS011;66339;47.262;17.144;2023-04-06T02:19:04;3.20;;;1.40;;
77280;SDS011;66339;47.262;17.144;2023-04-06T02:21:36;2.45;;;1.33;;
77280;SDS011;66339;47.262;17.144;2023-04-06T02:24:11;2.03;;;1.35;;
77280;SDS011;66339;47.262;17.144;2023-04-06T02:26:48;1.85;;;1.27;;
77280;SDS011;66339;47.262;17.144;2023-04-06T02:29:19;2.17;;;1.50;;
77280;SDS011;66339;47.262;17.144;2023-04-06T02:31:49;1.92;;;1.30;;
77280;SDS011;66339;47.262;17.144;2023-04-06T02:34:19;2.03;;;1.17;;
77280;SDS011;66339;47.262;17.144;2023-04-06T02:36:49;1.55;;;1.20;;
77280;SDS011;66339;47.262;17.144;2023-04-06T02:39:20;2.08;;;1.20;;
77280;SDS011;66339;47.262;17.144;2023-04-06T02:41:50;2.75;;;1.33;;
77280;SDS011;66339;47.262;17.144;2023-04-06T02:44:21;2.33;;;1.50;;
77280;SDS011;66339;47.262;17.144;2023-04-06T02:46:57;1.62;;;1.40;;
77280;SDS011;66339;47.262;17.144;2023-04-06T02:49:25;1.35;;;1.17;;
77280;SDS011;66339;47.262;17.144;2023-04-06T02:51:52;2.05;;;1.25;;
77280;SDS011;66339;47.262;17.144;2023-04-06T02:54:26;2.00;;;1.10;;
77280;SDS011;66339;47.262;17.144;2023-04-06T02:56:56;2.40;;;1.55;;
77280;SDS011;66339;47.262;17.144;2023-04-06T02:59:24;1.98;;;1.30;;
77280;SDS011;66339;47.262;17.144;2023-04-06T03:01:54;2.35;;;1.27;;
77280;SDS011;66339;47.262;17.144;2023-04-06T03:04:26;1.98;;;1.37;;
77280;SDS011;66339;47.262;17.144;2023-04-06T03:06:58;1.80;;;1.35;;
77280;SDS011;66339;47.262;17.144;2023-04-06T03:09:31;2.70;;;1.40;;
77280;SDS011;66339;47.262;17.144;2023-04-06T03:11:59;2.35;;;1.50;;
77280;SDS011;66339;47.262;17.144;2023-04-06T03:14:30;2.20;;;1.50;;
77280;SDS011;66339;47.262;17.144;2023-04-06T03:16:58;1.70;;;1.30;;
77280;SDS011;66339;47.262;17.144;2023-04-06T03:19:25;2.03;;;1.30;;
77280;SDS011;66339;47.262;17.144;2023-04-06T03:21:53;2.20;;;1.30;;
77280;SDS011;66339;47.262;17.144;2023-04-06T03:24:27;1.95;;;1.27;;
77280;SDS011;66339;47.262;17.144;2023-04-06T03:26:57;2.37;;;1.33;;
77280;SDS011;66339;47.262;17.144;2023-04-06T03:29:27;2.72;;;1.40;;
77280;SDS011;66339;47.262;17.144;2023-04-06T03:31:57;1.73;;;1.33;;
77280;SDS011;66339;47.262;17.144;2023-04-06T03:34:25;1.92;;;1.40;;
77280;SDS011;66339;47.262;17.144;2023-04-06T03:36:53;2.05;;;1.40;;
77280;SDS011;66339;47.262;17.144;2023-04-06T03:39:35;3.03;;;1.27;;
77280;SDS011;66339;47.262;17.144;2023-04-06T03:42:02;2.00;;;1.30;;
77280;SDS011;66339;47.262;17.144;2023-04-06T03:44:33;2.15;;;1.45;;
77280;SDS011;66339;47.262;17.144;2023-04-06T03:47:07;2.95;;;1.20;;
77280;SDS011;66339;47.262;17.144;2023-04-06T03:49:37;2.30;;;1.40;;
77280;SDS011;66339;47.262;17.144;2023-04-06T03:52:09;1.92;;;1.40;;
77280;SDS011;66339;47.262;17.144;2023-04-06T03:54:42;2.47;;;1.45;;
77280;SDS011;66339;47.262;17.144;2023-04-06T03:57:13;2.95;;;1.42;;
77280;SDS011;66339;47.262;17.144;2023-04-06T04:00:00;1.80;;;1.30;;
77280;SDS011;66339;47.262;17.144;2023-04-06T04:02:34;2.00;;;1.20;;
77280;SDS011;66339;47.262;17.144;2023-04-06T04:05:02;2.28;;;1.30;;
77280;SDS011;66339;47.262;17.144;2023-04-06T04:07:30;2.70;;;1.30;;
77280;SDS011;66339;47.262;17.144;2023-04-06T04:10:01;1.52;;;1.20;;
77280;SDS011;66339;47.262;17.144;2023-04-06T04:12:38;1.65;;;1.42;;
77280;SDS011;66339;47.262;17.144;2023-04-06T04:15:12;4.68;;;1.40;;
77280;SDS011;66339;47.262;17.144;2023-04-06T04:17:45;2.00;;;1.35;;
77280;SDS011;66339;47.262;17.144;2023-04-06T04:20:13;1.87;;;1.37;;
77280;SDS011;66339;47.262;17.144;2023-04-06T04:22:44;1.95;;;1.23;;
77280;SDS011;66339;47.262;17.144;2023-04-06T04:25:15;1.45;;;1.20;;
77280;SDS011;66339;47.262;17.144;2023-04-06T04:27:48;1.80;;;1.27;;
77280;SDS011;66339;47.262;17.144;2023-04-06T04:30:22;1.75;;;1.45;;
77280;SDS011;66339;47.262;17.144;2023-04-06T04:32:52;1.60;;;1.30;;
77280;SDS011;66339;47.262;17.144;2023-04-06T04:35:23;2.17;;;1.25;;
77280;SDS011;66339;47.262;17.144;2023-04-06T04:37:59;1.95;;;1.60;;
77280;SDS011;66339;47.262;17.144;2023-04-06T04:40:30;2.42;;;1.35;;
77280;SDS011;66339;47.262;17.144;2023-04-06T04:43:01;1.92;;;1.40;;
77280;SDS011;66339;47.262;17.144;2023-04-06T04:45:28;2.97;;;1.12;;
77280;SDS011;66339;47.262;17.144;2023-04-06T04:47:59;1.65;;;1.20;;
77280;SDS011;66339;47.262;17.144;2023-04-06T04:50:29;2.20;;;1.45;;
77280;SDS011;66339;47.262;17.144;2023-04-06T04:53:00;2.08;;;1.40;;
77280;SDS011;66339;47.262;17.144;2023-04-06T04:55:31;1.58;;;1.30;;
77280;SDS011;66339;47.262;17.144;2023-04-06T04:58:06;2.28;;;1.30;;
77280;SDS011;66339;47.262;17.144;2023-04-06T05:00:36;1.77;;;1.30;;
77280;SDS011;66339;47.262;17.144;2023-04-06T05:05:41;2.28;;;1.55;;
77280;SDS011;66339;47.262;17.144;2023-04-06T05:08:18;2.35;;;1.40;;
77280;SDS011;66339;47.262;17.144;2023-04-06T05:13:18;1.62;;;1.30;;
77280;SDS011;66339;47.262;17.144;2023-04-06T05:15:51;1.30;;;1.05;;
77280;SDS011;66339;47.262;17.144;2023-04-06T05:20:53;1.23;;;1.12;;
77280;SDS011;66339;47.262;17.144;2023-04-06T05:23:27;2.25;;;1.30;;
77280;SDS011;66339;47.262;17.144;2023-04-06T05:25:57;1.87;;;1.30;;
77280;SDS011;66339;47.262;17.144;2023-04-06T05:28:32;2.22;;;1.40;;
77280;SDS011;66339;47.262;17.144;2023-04-06T05:31:03;2.05;;;1.40;;
77280;SDS011;66339;47.262;17.144;2023-04-06T05:33:32;1.42;;;1.23;;
77280;SDS011;66339;47.262;17.144;2023-04-06T05:36:05;2.10;;;1.40;;
77280;SDS011;66339;47.262;17.144;2023-04-06T05:38:39;1.77;;;1.42;;
77280;SDS011;66339;47.262;17.144;2023-04-06T05:41:14;1.92;;;1.00;;
77280;SDS011;66339;47.262;17.144;2023-04-06T05:43:45;2.15;;;1.45;;
77280;SDS011;66339;47.262;17.144;2023-04-06T05:46:19;2.65;;;1.42;;
77280;SDS011;66339;47.262;17.144;2023-04-06T05:48:58;2.15;;;1.40;;
77280;SDS011;66339;47.262;17.144;2023-04-06T05:51:26;3.62;;;1.37;;
77280;SDS011;66339;47.262;17.144;2023-04-06T05:53:59;3.05;;;1.67;;
77280;SDS011;66339;47.262;17.144;2023-04-06T05:56:29;2.80;;;1.60;;
77280;SDS011;66339;47.262;17.144;2023-04-06T05:59:00;4.75;;;1.35;;
77280;SDS011;66339;47.262;17.144;2023-04-06T06:01:33;5.32;;;1.85;;
77280;SDS011;66339;47.262;17.144;2023-04-06T06:04:04;11.00;;;1.65;;
77280;SDS011;66339;47.262;17.144;2023-04-06T06:06:38;8.18;;;1.75;;
77280;SDS011;66339;47.262;17.144;2023-04-06T06:09:09;4.37;;;1.70;;
77280;SDS011;66339;47.262;17.144;2023-04-06T06:14:15;5.35;;;2.22;;
77280;SDS011;66339;47.262;17.144;2023-04-06T06:29:24;7.82;;;2.00;;
77280;SDS011;66339;47.262;17.144;2023-04-06T06:31:54;3.05;;;1.80;;
77280;SDS011;66339;47.262;17.144;2023-04-06T06:34:21;9.50;;;2.12;;
77280;SDS011;66339;47.262;17.144;2023-04-06T06:36:48;7.62;;;1.75;;
77280;SDS011;66339;47.262;17.144;2023-04-06T06:39:25;3.67;;;1.75;;
77280;SDS011;66339;47.262;17.144;2023-04-06T06:41:55;2.53;;;1.80;;
77280;SDS011;66339;47.262;17.144;2023-04-06T06:44:23;5.95;;;1.90;;
77280;SDS011;66339;47.262;17.144;2023-04-06T06:47:01;4.32;;;2.10;;
77280;SDS011;66339;47.262;17.144;2023-04-06T06:49:31;4.40;;;1.77;;
77280;SDS011;66339;47.262;17.144;2023-04-06T06:52:06;8.57;;;1.95;;
77280;SDS011;66339;47.262;17.144;2023-04-06T06:54:33;5.68;;;2.08;;
77280;SDS011;66339;47.262;17.144;2023-04-06T06:57:07;6.12;;;1.92;;
77280;SDS011;66339;47.262;17.144;2023-04-06T06:59:37;2.67;;;1.85;;
77280;SDS011;66339;47.262;17.144;2023-04-06T07:02:21;9.73;;;2.28;;
77280;SDS011;66339;47.262;17.144;2023-04-06T07:04:53;7.62;;;1.98;;
77280;SDS011;66339;47.262;17.144;2023-04-06T07:07:21;11.65;;;1.87;;
77280;SDS011;66339;47.262;17.144;2023-04-06T07:09:49;7.18;;;2.33;;
77280;SDS011;66339;47.262;17.144;2023-04-06T07:12:17;8.55;;;2.30;;
77280;SDS011;66339;47.262;17.144;2023-04-06T07:14:53;6.85;;;2.35;;
77280;SDS011;66339;47.262;17.144;2023-04-06T07:17:24;5.97;;;2.58;;
77280;SDS011;66339;47.262;17.144;2023-04-06T07:19:54;7.43;;;2.33;;
77280;SDS011;66339;47.262;17.144;2023-04-06T07:22:21;7.25;;;2.40;;
77280;SDS011;66339;47.262;17.144;2023-04-06T07:24:49;5.15;;;2.20;;
77280;SDS011;66339;47.262;17.144;2023-04-06T07:27:20;6.90;;;2.50;;
77280;SDS011;66339;47.262;17.144;2023-04-06T07:29:49;7.10;;;2.15;;
77280;SDS011;66339;47.262;17.144;2023-04-06T07:32:19;8.73;;;2.20;;
77280;SDS011;66339;47.262;17.144;2023-04-06T07:34:50;5.35;;;2.05;;
77280;SDS011;66339;47.262;17.144;2023-04-06T07:37:19;6.53;;;2.30;;
77280;SDS011;66339;47.262;17.144;2023-04-06T07:39:46;10.25;;;3.05;;
77280;SDS011;66339;47.262;17.144;2023-04-06T07:42:13;8.60;;;2.30;;
77280;SDS011;66339;47.262;17.144;2023-04-06T07:44:40;14.95;;;2.50;;
77280;SDS011;66339;47.262;17.144;2023-04-06T07:47:10;8.85;;;2.28;;
77280;SDS011;66339;47.262;17.144;2023-04-06T07:49:40;9.38;;;2.87;;
77280;SDS011;66339;47.262;17.144;2023-04-06T07:52:13;15.30;;;2.80;;
77280;SDS011;66339;47.262;17.144;2023-04-06T07:54:44;19.77;;;3.37;;
77280;SDS011;66339;47.262;17.144;2023-04-06T07:57:14;11.55;;;2.80;;
77280;SDS011;66339;47.262;17.144;2023-04-06T07:59:44;14.15;;;2.35;;
77280;SDS011;66339;47.262;17.144;2023-04-06T08:02:15;11.50;;;2.50;;
77280;SDS011;66339;47.262;17.144;2023-04-06T08:04:42;9.48;;;2.40;;
77280;SDS011;66339;47.262;17.144;2023-04-06T08:07:12;9.38;;;2.55;;
77280;SDS011;66339;47.262;17.144;2023-04-06T08:09:42;7.62;;;2.03;;
77280;SDS011;66339;47.262;17.144;2023-04-06T08:12:11;11.18;;;2.97;;
77280;SDS011;66339;47.262;17.144;2023-04-06T08:14:41;13.85;;;2.70;;
77280;SDS011;66339;47.262;17.144;2023-04-06T08:17:17;5.25;;;2.40;;
77280;SDS011;66339;47.262;17.144;2023-04-06T08:19:47;8.38;;;2.00;;
77280;SDS011;66339;47.262;17.144;2023-04-06T08:22:20;5.15;;;1.85;;
77280;SDS011;66339;47.262;17.144;2023-04-06T08:24:55;5.87;;;1.98;;
77280;SDS011;66339;47.262;17.144;2023-04-06T08:27:23;5.22;;;2.12;;
77280;SDS011;66339;47.262;17.144;2023-04-06T08:29:50;7.10;;;2.00;;
77280;SDS011;66339;47.262;17.144;2023-04-06T08:32:17;9.18;;;2.20;;
77280;SDS011;66339;47.262;17.144;2023-04-06T08:34:46;7.70;;;2.00;;
77280;SDS011;66339;47.262;17.144;2023-04-06T08:37:22;4.78;;;2.33;;
77280;SDS011;66339;47.262;17.144;2023-04-06T08:39:52;5.28;;;2.25;;
77280;SDS011;66339;47.262;17.144;2023-04-06T08:42:24;3.95;;;1.87;;
77280;SDS011;66339;47.262;17.144;2023-04-06T08:44:57;7.72;;;2.35;;
77280;SDS011;66339;47.262;17.144;2023-04-06T08:47:27;4.53;;;1.80;;
77280;SDS011;66339;47.262;17.144;2023-04-06T08:49:55;5.93;;;2.83;;
77280;SDS011;66339;47.262;17.144;2023-04-06T08:52:22;4.05;;;2.42;;
77280;SDS011;66339;47.262;17.144;2023-04-06T08:54:54;3.28;;;1.95;;
77280;SDS011;66339;47.262;17.144;2023-04-06T08:57:21;6.75;;;2.03;;
77280;SDS011;66339;47.262;17.144;2023-04-06T08:59:55;4.97;;;2.10;;
77280;SDS011;66339;47.262;17.144;2023-04-06T09:02:23;6.87;;;2.05;;
77280;SDS011;66339;47.262;17.144;2023-04-06T09:04:53;6.18;;;2.03;;
77280;SDS011;66339;47.262;17.144;2023-04-06T09:07:23;4.10;;;1.80;;
77280;SDS011;66339;47.262;17.144;2023-04-06T09:09:50;8.82;;;2.22;;
77280;SDS011;66339;47.262;17.144;2023-04-06T09:12:24;2.72;;;1.77;;
77280;SDS011;66339;47.262;17.144;2023-04-06T09:14:53;3.87;;;1.92;;
77280;SDS011;66339;47.262;17.144;2023-04-06T09:17:30;6.60;;;2.10;;
77280;SDS011;66339;47.262;17.144;2023-04-06T09:19:59;7.90;;;1.98;;
77280;SDS011;66339;47.262;17.144;2023-04-06T09:22:39;6.35;;;1.90;;
77280;SDS011;66339;47.262;17.144;2023-04-06T09:25:17;4.62;;;2.12;;
77280;SDS011;66339;47.262;17.144;2023-04-06T09:27:58;9.23;;;2.37;;
77280;SDS011;66339;47.262;17.144;2023-04-06T09:30:27;17.90;;;2.62;;
77280;SDS011;66339;47.262;17.144;2023-04-06T09:32:55;4.60;;;2.33;;
77280;SDS011;66339;47.262;17.144;2023-04-06T09:35:23;11.05;;;2.22;;
77280;SDS011;66339;47.262;17.144;2023-04-06T09:37:51;5.00;;;2.03;;
77280;SDS011;66339;47.262;17.144;2023-04-06T09:40:25;5.43;;;2.12;;
77280;SDS011;66339;47.262;17.144;2023-04-06T09:42:56;8.10;;;1.85;;
77280;SDS011;66339;47.262;17.144;2023-04-06T09:45:29;9.05;;;2.25;;
77280;SDS011;66339;47.262;17.144;2023-04-06T09:47:58;5.72;;;2.00;;
77280;SDS011;66339;47.262;17.144;2023-04-06T09:50:34;10.43;;;2.08;;
77280;SDS011;66339;47.262;17.144;2023-04-06T09:53:13;7.65;;;2.00;;
77280;SDS011;66339;47.262;17.144;2023-04-06T09:55:46;8.77;;;1.90;;
77280;SDS011;66339;47.262;17.144;2023-04-06T09:58:19;4.90;;;1.80;;
77280;SDS011;66339;47.262;17.144;2023-04-06T10:01:00;6.87;;;2.22;;
77280;SDS011;66339;47.262;17.144;2023-04-06T10:06:27;5.75;;;1.95;;
77280;SDS011;66339;47.262;17.144;2023-04-06T10:08:59;6.82;;;2.03;;
77280;SDS011;66339;47.262;17.144;2023-04-06T10:11:30;4.65;;;1.50;;
77280;SDS011;66339;47.262;17.144;2023-04-06T10:14:04;5.78;;;1.85;;
77280;SDS011;66339;47.262;17.144;2023-04-06T10:16:36;6.65;;;2.08;;
77280;SDS011;66339;47.262;17.144;2023-04-06T10:19:09;7.10;;;2.25;;
77280;SDS011;66339;47.262;17.144;2023-04-06T10:21:43;6.45;;;1.80;;
77280;SDS011;66339;47.262;17.144;2023-04-06T10:24:20;5.95;;;2.08;;
77280;SDS011;66339;47.262;17.144;2023-04-06T10:27:26;4.22;;;1.98;;
77280;SDS011;66339;47.262;17.144;2023-04-06T10:29:54;5.47;;;2.20;;
77280;SDS011;66339;47.262;17.144;2023-04-06T10:32:37;3.80;;;1.75;;
77280;SDS011;66339;47.262;17.144;2023-04-06T10:35:07;2.72;;;1.73;;
77280;SDS011;66339;47.262;17.144;2023-04-06T10:40:28;3.47;;;1.60;;
77280;SDS011;66339;47.262;17.144;2023-04-06T10:43:06;4.82;;;1.50;;
77280;SDS011;66339;47.262;17.144;2023-04-06T10:45:57;8.48;;;2.35;;
77280;SDS011;66339;47.262;17.144;2023-04-06T10:48:43;8.25;;;1.90;;
77280;SDS011;66339;47.262;17.144;2023-04-06T10:51:18;5.05;;;1.95;;
77280;SDS011;66339;47.262;17.144;2023-04-06T10:53:55;4.90;;;1.80;;
77280;SDS011;66339;47.262;17.144;2023-04-06T10:56:27;8.82;;;1.92;;
77280;SDS011;66339;47.262;17.144;2023-04-06T10:59:02;8.88;;;1.92;;
77280;SDS011;66339;47.262;17.144;2023-04-06T11:01:33;5.95;;;1.83;;
77280;SDS011;66339;47.262;17.144;2023-04-06T11:04:01;6.82;;;1.92;;
77280;SDS011;66339;47.262;17.144;2023-04-06T11:06:29;7.72;;;1.98;;
77280;SDS011;66339;47.262;17.144;2023-04-06T11:08:57;10.02;;;2.12;;
77280;SDS011;66339;47.262;17.144;2023-04-06T11:11:30;7.82;;;2.30;;
77280;SDS011;66339;47.262;17.144;2023-04-06T11:13:59;3.78;;;2.00;;
77280;SDS011;66339;47.262;17.144;2023-04-06T11:16:30;4.75;;;1.90;;
77280;SDS011;66339;47.262;17.144;2023-04-06T11:19:09;3.72;;;2.00;;
77280;SDS011;66339;47.262;17.144;2023-04-06T11:21:40;5.50;;;2.25;;
77280;SDS011;66339;47.262;17.144;2023-04-06T11:24:13;5.18;;;2.10;;
77280;SDS011;66339;47.262;17.144;2023-04-06T11:26:45;5.18;;;2.10;;
77280;SDS011;66339;47.262;17.144;2023-04-06T11:29:19;3.15;;;1.90;;
77280;SDS011;66339;47.262;17.144;2023-04-06T11:31:51;6.90;;;2.60;;
77280;SDS011;66339;47.262;17.144;2023-04-06T11:34:42;4.90;;;2.17;;
77280;SDS011;66339;47.262;17.144;2023-04-06T11:37:12;7.55;;;2.53;;
77280;SDS011;66339;47.262;17.144;2023-04-06T11:39:47;6.20;;;2.17;;
77280;SDS011;66339;47.262;17.144;2023-04-06T11:42:25;5.68;;;2.17;;
77280;SDS011;66339;47.262;17.144;2023-04-06T11:44:56;3.65;;;1.80;;
77280;SDS011;66339;47.262;17.144;2023-04-06T11:47:27;6.85;;;1.80;;
77280;SDS011;66339;47.262;17.144;2023-04-06T11:50:06;3.28;;;2.00;;
77280;SDS011;66339;47.262;17.144;2023-04-06T11:52:41;3.33;;;2.00;;
77280;SDS011;66339;47.262;17.144;2023-04-06T11:55:27;4.72;;;2.55;;
77280;SDS011;66339;47.262;17.144;2023-04-06T11:58:01;6.82;;;1.73;;
77280;SDS011;66339;47.262;17.144;2023-04-06T12:00:33;8.43;;;1.80;;
77280;SDS011;66339;47.262;17.144;2023-04-06T12:03:06;7.50;;;1.83;;
77280;SDS011;66339;47.262;17.144;2023-04-06T12:05:39;4.70;;;1.70;;
77280;SDS011;66339;47.262;17.144;2023-04-06T12:08:07;4.80;;;1.67;;
77280;SDS011;66339;47.262;17.144;2023-04-06T12:10:37;3.50;;;1.60;;
77280;SDS011;66339;47.262;17.144;2023-04-06T12:13:08;5.20;;;1.73;;
77280;SDS011;66339;47.262;17.144;2023-04-06T12:15:34;3.45;;;1.73;;
77280;SDS011;66339;47.262;17.144;2023-04-06T12:18:05;5.65;;;1.80;;
77280;SDS011;66339;47.262;17.144;2023-04-06T12:20:35;2.87;;;1.60;;
77280;SDS011;66339;47.262;17.144;2023-04-06T12:23:07;6.05;;;1.70;;
77280;SDS011;66339;47.262;17.144;2023-04-06T12:25:42;3.12;;;1.62;;
77280;SDS011;66339;47.262;17.144;2023-04-06T12:28:09;4.55;;;1.77;;
77280;SDS011;66339;47.262;17.144;2023-04-06T12:30:42;2.95;;;1.55;;
77280;SDS011;66339;47.262;17.144;2023-04-06T12:33:12;5.25;;;1.48;;
77280;SDS011;66339;47.262;17.144;2023-04-06T12:35:39;7.82;;;1.87;;
77280;SDS011;66339;47.262;17.144;2023-04-06T12:38:15;18.75;;;2.00;;
77280;SDS011;66339;47.262;17.144;2023-04-06T12:40:49;4.87;;;1.90;;
77280;SDS011;66339;47.262;17.144;2023-04-06T12:43:16;5.43;;;1.58;;
77280;SDS011;66339;47.262;17.144;2023-04-06T12:45:43;3.90;;;1.67;;
77280;SDS011;66339;47.262;17.144;2023-04-06T12:48:13;5.57;;;1.80;;
77280;SDS011;66339;47.262;17.144;2023-04-06T12:50:43;4.55;;;1.70;;
77280;SDS011;66339;47.262;17.144;2023-04-06T12:53:17;6.70;;;2.00;;
77280;SDS011;66339;47.262;17.144;2023-04-06T12:55:49;10.63;;;1.90;;
77280;SDS011;66339;47.262;17.144;2023-04-06T12:58:22;10.68;;;1.70;;
77280;SDS011;66339;47.262;17.144;2023-04-06T13:00:57;5.62;;;1.90;;
77280;SDS011;66339;47.262;17.144;2023-04-06T13:03:36;4.82;;;2.15;;
77280;SDS011;66339;47.262;17.144;2023-04-06T13:06:08;10.43;;;1.60;;
77280;SDS011;66339;47.262;17.144;2023-04-06T13:08:39;7.18;;;1.77;;
77280;SDS011;66339;47.262;17.144;2023-04-06T13:11:07;6.87;;;2.15;;
77280;SDS011;66339;47.262;17.144;2023-04-06T13:13:35;8.73;;;2.12;;
77280;SDS011;66339;47.262;17.144;2023-04-06T13:16:08;4.85;;;1.70;;
77280;SDS011;66339;47.262;17.144;2023-04-06T13:18:36;4.32;;;1.62;;
77280;SDS011;66339;47.262;17.144;2023-04-06T13:21:03;3.60;;;1.65;;
77280;SDS011;66339;47.262;17.144;2023-04-06T13:23:34;10.80;;;1.95;;
77280;SDS011;66339;47.262;17.144;2023-04-06T13:26:06;7.00;;;1.87;;
77280;SDS011;66339;47.262;17.144;2023-04-06T13:28:34;4.62;;;1.60;;
77280;SDS011;66339;47.262;17.144;2023-04-06T13:31:05;3.60;;;1.87;;
77280;SDS011;66339;47.262;17.144;2023-04-06T13:33:39;6.35;;;1.80;;
77280;SDS011;66339;47.262;17.144;2023-04-06T13:36:09;4.78;;;2.30;;
77280;SDS011;66339;47.262;17.144;2023-04-06T13:38:40;5.80;;;1.70;;
77280;SDS011;66339;47.262;17.144;2023-04-06T13:41:07;3.97;;;1.70;;
77280;SDS011;66339;47.262;17.144;2023-04-06T13:43:37;4.32;;;1.35;;
77280;SDS011;66339;47.262;17.144;2023-04-06T13:46:08;4.05;;;1.30;;
77280;SDS011;66339;47.262;17.144;2023-04-06T13:48:38;4.05;;;1.73;;
77280;SDS011;66339;47.262;17.144;2023-04-06T13:51:08;4.18;;;1.65;;
77280;SDS011;66339;47.262;17.144;2023-04-06T13:53:41;5.15;;;1.48;;
77280;SDS011;66339;47.262;17.144;2023-04-06T13:56:09;4.55;;;1.50;;
77280;SDS011;66339;47.262;17.144;2023-04-06T13:58:40;2.12;;;1.50;;
77280;SDS011;66339;47.262;17.144;2023-04-06T14:01:13;3.67;;;1.50;;
77280;SDS011;66339;47.262;17.144;2023-04-06T14:03:47;2.45;;;1.27;;
77280;SDS011;66339;47.262;17.144;2023-04-06T14:06:18;3.35;;;1.52;;
77280;SDS011;66339;47.262;17.144;2023-04-06T14:08:57;5.60;;;1.50;;
77280;SDS011;66339;47.262;17.144;2023-04-06T14:11:30;3.70;;;1.42;;
77280;SDS011;66339;47.262;17.144;2023-04-06T14:14:00;8.30;;;1.87;;
77280;SDS011;66339;47.262;17.144;2023-04-06T14:16:33;7.10;;;1.70;;
77280;SDS011;66339;47.262;17.144;2023-04-06T14:19:00;6.12;;;1.52;;
77280;SDS011;66339;47.262;17.144;2023-04-06T14:21:30;3.25;;;1.55;;
77280;SDS011;66339;47.262;17.144;2023-04-06T14:24:00;5.82;;;1.50;;
77280;SDS011;66339;47.262;17.144;2023-04-06T14:26:38;4.90;;;1.20;;
77280;SDS011;66339;47.262;17.144;2023-04-06T14:29:07;8.77;;;1.50;;
77280;SDS011;66339;47.262;17.144;2023-04-06T14:31:44;13.55;;;2.15;;
77280;SDS011;66339;47.262;17.144;2023-04-06T14:34:16;17.48;;;2.28;;
77280;SDS011;66339;47.262;17.144;2023-04-06T14:36:44;7.20;;;2.05;;
77280;SDS011;66339;47.262;17.144;2023-04-06T14:39:11;9.02;;;2.00;;
77280;SDS011;66339;47.262;17.144;2023-04-06T14:41:42;9.05;;;2.10;;
77280;SDS011;66339;47.262;17.144;2023-04-06T14:44:15;6.15;;;1.80;;
77280;SDS011;66339;47.262;17.144;2023-04-06T14:46:48;19.83;;;6.35;;
77280;SDS011;66339;47.262;17.144;2023-04-06T14:49:16;24.35;;;7.03;;
77280;SDS011;66339;47.262;17.144;2023-04-06T14:51:49;28.98;;;9.20;;
77280;SDS011;66339;47.262;17.144;2023-04-06T14:54:17;30.77;;;10.32;;
77280;SDS011;66339;47.262;17.144;2023-04-06T14:56:44;34.58;;;12.65;;
77280;SDS011;66339;47.262;17.144;2023-04-06T14:59:17;36.25;;;12.98;;
77280;SDS011;66339;47.262;17.144;2023-04-06T15:01:48;38.13;;;13.13;;
77280;SDS011;66339;47.262;17.144;2023-04-06T15:04:19;39.92;;;12.80;;
77280;SDS011;66339;47.262;17.144;2023-04-06T15:06:50;37.92;;;12.55;;
77280;SDS011;66339;47.262;17.144;2023-04-06T15:09:17;36.60;;;12.45;;
77280;SDS011;66339;47.262;17.144;2023-04-06T15:11:45;38.72;;;12.75;;
77280;SDS011;66339;47.262;17.144;2023-04-06T15:14:18;36.33;;;12.60;;
77280;SDS011;66339;47.262;17.144;2023-04-06T15:16:46;38.75;;;13.57;;
77280;SDS011;66339;47.262;17.144;2023-04-06T15:19:22;37.30;;;14.77;;
77280;SDS011;66339;47.262;17.144;2023-04-06T15:21:55;42.33;;;16.35;;
77280;SDS011;66339;47.262;17.144;2023-04-06T15:24:26;47.88;;;17.05;;
77280;SDS011;66339;47.262;17.144;2023-04-06T15:26:57;44.33;;;17.73;;
77280;SDS011;66339;47.262;17.144;2023-04-06T15:29:30;50.80;;;18.58;;